Time;durP1;ratioP1;P1;durP2;ratioP2;P2;SDS_P1;SDS_P2;PMS_P1;PMS_P2;Temp;Humidity;BMP_temperature;BMP_pressure;BME280_temperature;BME280_humidity;BME280_pressure;Samples;Min_cycle;Max_cycle;Signal;HPM_P1;HPM_P2
2021/01/20 00:01:48;;;;;;;52.75;27.60;;;;;;;-4.96;89.05;99188.80;1749196;82;21070;-56
2021/01/20 00:04:16;;;;;;;53.63;27.48;;;;;;;-4.95;88.99;99190.50;1749308;82;21384;-56
2021/01/20 00:06:44;;;;;;;51.30;25.68;;;;;;;-4.94;89.09;99193.48;1749282;82;21146;-56
2021/01/20 00:09:12;;;;;;;54.80;27.70;;;;;;;-4.94;89.10;99193.48;1749217;82;21122;-56
2021/01/20 00:11:39;;;;;;;51.50;26.33;;;;;;;-4.92;89.13;99203.66;1749008;82;21082;-57
2021/01/20 00:14:08;;;;;;;49.00;26.00;;;;;;;-4.91;89.20;99192.31;1749159;82;21062;-56
2021/01/20 00:16:36;;;;;;;43.75;23.95;;;;;;;-4.88;89.24;99197.86;1749020;81;21271;-56
2021/01/20 00:19:03;;;;;;;53.92;27.77;;;;;;;-4.87;89.23;99191.55;1749059;82;21141;-57
2021/01/20 00:21:32;;;;;;;52.33;28.02;;;;;;;-4.86;89.21;99194.53;1749120;82;21118;-57
2021/01/20 00:23:59;;;;;;;46.77;25.43;;;;;;;-4.83;89.27;99185.75;1749052;82;21119;-56
2021/01/20 00:26:28;;;;;;;44.67;25.02;;;;;;;-4.81;89.33;99181.56;1749071;82;21066;-56
2021/01/20 00:28:56;;;;;;;48.40;26.75;;;;;;;-4.79;89.30;99182.86;1748934;81;21463;-56
2021/01/20 00:31:24;;;;;;;52.65;27.27;;;;;;;-4.79;89.33;99182.86;1749230;82;21171;-56
2021/01/20 00:33:52;;;;;;;48.55;25.97;;;;;;;-4.78;89.42;99176.55;1749205;82;21126;-61
2021/01/20 00:36:19;;;;;;;49.10;26.25;;;;;;;-4.73;89.47;99173.29;1749323;82;21095;-56
2021/01/20 00:38:47;;;;;;;47.38;25.15;;;;;;;-4.71;89.44;99180.11;1749096;82;21185;-56
2021/01/20 00:41:20;;;;;;;47.88;25.97;;;;;;;-4.71;89.39;99173.77;1749325;82;21515;-57
2021/01/20 00:43:49;;;;;;;52.88;27.30;;;;;;;-4.69;89.45;99167.45;1749175;82;21078;-57
2021/01/20 00:46:16;;;;;;;48.15;24.40;;;;;;;-4.67;89.55;99168.38;1749282;82;21141;-57
2021/01/20 00:48:45;;;;;;;48.75;26.12;;;;;;;-4.65;89.57;99162.50;1749194;82;21130;-62
2021/01/20 00:51:13;;;;;;;49.60;25.80;;;;;;;-4.66;89.50;99163.33;1749142;82;21193;-56
2021/01/20 00:53:41;;;;;;;51.10;28.12;;;;;;;-4.67;89.54;99167.10;1749282;80;21278;-55
2021/01/20 00:56:10;;;;;;;48.90;25.88;;;;;;;-4.67;89.60;99165.84;1748845;82;21086;-57
2021/01/20 00:58:39;;;;;;;53.95;28.47;;;;;;;-4.65;89.67;99162.91;1749335;82;21528;-56
2021/01/20 01:01:07;;;;;;;48.00;25.82;;;;;;;-4.65;89.72;99146.43;1749132;81;21078;-56
2021/01/20 01:03:36;;;;;;;50.52;26.10;;;;;;;-4.62;89.78;99147.75;1749448;82;21521;-56
2021/01/20 01:06:06;;;;;;;48.50;25.25;;;;;;;-4.62;89.73;99151.14;1749098;82;21217;-55
2021/01/20 01:08:34;;;;;;;50.48;25.97;;;;;;;-4.60;89.83;99152.48;1749312;82;21619;-55
2021/01/20 01:11:04;;;;;;;48.48;24.77;;;;;;;-4.59;89.79;99147.84;1749178;82;21127;-56
2021/01/20 01:13:38;;;;;;;44.20;24.65;;;;;;;-4.58;89.83;99145.75;1748325;82;21094;-56
2021/01/20 01:16:24;;;;;;;41.60;23.02;;;;;;;-4.58;89.80;99141.95;1749288;81;21161;-56
2021/01/20 01:18:52;;;;;;;46.02;24.85;;;;;;;-4.58;89.85;99145.75;1748948;82;21371;-55
2021/01/20 01:21:20;;;;;;;47.00;25.40;;;;;;;-4.57;89.85;99138.17;1749217;82;21082;-56
2021/01/20 01:23:48;;;;;;;48.35;25.70;;;;;;;-4.58;89.79;99139.00;1748948;82;21054;-56
2021/01/20 01:26:16;;;;;;;45.60;25.75;;;;;;;-4.58;89.93;99139.00;1749168;82;21189;-56
2021/01/20 01:28:44;;;;;;;48.02;25.80;;;;;;;-4.55;89.92;99142.00;1749093;82;21127;-55
2021/01/20 01:31:17;;;;;;;50.38;25.10;;;;;;;-4.53;89.90;99147.99;1701151;82;21391;-56
2021/01/20 01:33:45;;;;;;;44.33;23.62;;;;;;;-4.52;90.03;99142.95;1748861;82;21110;-56
2021/01/20 01:36:14;;;;;;;48.90;25.65;;;;;;;-4.48;90.09;99142.59;1749003;80;21118;-55
2021/01/20 01:38:42;;;;;;;49.65;25.20;;;;;;;-4.48;90.04;99145.13;1749154;82;21133;-55
2021/01/20 01:41:12;;;;;;;44.42;24.98;;;;;;;-4.47;90.10;99150.23;1748713;82;21141;-55
2021/01/20 01:43:42;;;;;;;44.48;24.75;;;;;;;-4.44;90.11;99153.27;1746622;82;21345;-55
2021/01/20 01:46:18;;;;;;;44.98;24.63;;;;;;;-4.40;90.12;99147.42;1748940;82;21162;-56
2021/01/20 01:48:47;;;;;;;40.88;21.23;;;;;;;-4.36;90.12;99141.61;1747919;82;21085;-56
2021/01/20 01:51:16;;;;;;;45.28;24.25;;;;;;;-4.33;90.04;99149.69;1749199;82;21078;-56
2021/01/20 01:53:45;;;;;;;46.25;25.57;;;;;;;-4.32;89.98;99150.13;1745395;82;21094;-56
2021/01/20 01:56:15;;;;;;;50.35;27.32;;;;;;;-4.33;89.99;99142.93;1747943;82;21208;-57
2021/01/20 01:58:44;;;;;;;45.88;26.10;;;;;;;-4.31;89.98;99140.00;1748105;81;21762;-57
2021/01/20 02:01:14;;;;;;;45.45;24.40;;;;;;;-4.28;90.06;99137.55;1724149;82;21148;-56
2021/01/20 02:03:43;;;;;;;44.90;24.00;;;;;;;-4.26;90.05;99138.44;1748129;82;21138;-56
2021/01/20 02:06:12;;;;;;;42.70;24.00;;;;;;;-4.24;90.01;99136.78;1749124;80;21169;-57
2021/01/20 02:08:40;;;;;;;44.85;23.60;;;;;;;-4.22;90.05;99142.77;1749104;82;21199;-56
2021/01/20 02:11:21;;;;;;;39.83;22.98;;;;;;;-4.21;89.96;99142.36;1748915;82;21118;-55
2021/01/20 02:14:01;;;;;;;46.70;24.55;;;;;;;-4.22;89.92;99135.56;1749212;82;21066;-55
2021/01/20 02:16:31;;;;;;;43.33;24.23;;;;;;;-4.23;89.97;99131.32;1741796;82;21666;-55
2021/01/20 02:19:01;;;;;;;38.70;22.10;;;;;;;-4.23;90.06;99141.06;1770044;80;21062;-56
2021/01/20 02:22:02;;;;;;;41.73;23.25;;;;;;;-4.20;90.15;99144.92;1776125;80;22085;-56
2021/01/20 02:24:58;;;;;;;;;;;;;;;-4.16;90.13;99134.41;1779297;80;21079;-56
2021/01/20 02:27:33;;;;;;;45.98;24.10;;;;;;;-4.14;90.12;99131.92;1770823;80;20263;-57
2021/01/20 02:30:12;;;;;;;44.83;24.60;;;;;;;-4.12;90.13;99136.61;1776560;80;21162;-56
2021/01/20 02:32:51;;;;;;;41.33;22.67;;;;;;;-4.10;90.07;99140.03;1776876;80;21119;-56
2021/01/20 02:35:22;;;;;;;43.48;23.50;;;;;;;-4.10;90.01;99137.49;1775177;80;21572;-57
2021/01/20 02:37:50;;;;;;;43.05;25.52;;;;;;;-4.12;90.08;99132.39;1776621;80;21067;-57
2021/01/20 02:40:23;;;;;;;42.55;24.87;;;;;;;-4.10;90.12;99132.41;1774720;80;21134;-58
2021/01/20 02:42:56;;;;;;;46.15;23.95;;;;;;;-4.10;90.10;99134.54;1763261;80;21058;-56
2021/01/20 02:45:27;;;;;;;40.73;22.82;;;;;;;-4.09;90.20;99137.52;1775762;80;38082;-55
2021/01/20 02:47:57;;;;;;;43.35;24.45;;;;;;;-4.07;90.21;99135.04;1776596;80;21366;-55
2021/01/20 02:50:26;;;;;;;44.18;24.10;;;;;;;-4.06;90.16;99129.13;1776595;80;21126;-55
2021/01/20 02:53:10;;;;;;;40.10;22.90;;;;;;;-4.07;90.15;99135.04;1723231;80;21081;-55
2021/01/20 02:55:59;;;;;;;42.93;22.00;;;;;;;-4.06;90.18;99131.67;1776767;80;21055;-57
2021/01/20 02:58:38;;;;;;;40.73;22.22;;;;;;;-4.05;90.23;99129.16;1729814;80;21063;-56
2021/01/20 03:01:08;;;;;;;43.02;24.10;;;;;;;-4.05;90.14;99131.70;1772115;80;22126;-56
2021/01/20 03:03:36;;;;;;;42.17;23.52;;;;;;;-4.05;90.13;99132.11;1709463;80;21075;-57
2021/01/20 03:06:26;;;;;;;44.48;24.95;;;;;;;-4.02;90.23;99135.97;1746339;80;21129;-57
2021/01/20 03:08:55;;;;;;;39.48;23.05;;;;;;;-4.01;90.18;99130.06;1808526;79;21081;-57
2021/01/20 03:11:22;;;;;;;43.20;23.22;;;;;;;-4.00;90.18;99130.53;1808519;79;21533;-56
2021/01/20 03:13:50;;;;;;;42.50;23.05;;;;;;;-4.00;90.11;99131.80;1808485;79;21241;-56
2021/01/20 03:16:25;;;;;;;41.13;23.25;;;;;;;-4.02;90.12;99127.08;1808535;79;21148;-55
2021/01/20 03:18:52;;;;;;;45.33;22.35;;;;;;;-4.02;90.11;99127.08;1777571;79;21060;-56
2021/01/20 03:21:21;;;;;;;47.27;23.85;;;;;;;-4.05;90.12;99134.23;1808512;79;21100;-57
2021/01/20 03:23:49;;;;;;;39.30;22.48;;;;;;;-4.05;90.05;99131.70;1808696;79;21109;-56
2021/01/20 03:26:16;;;;;;;39.73;22.90;;;;;;;-4.07;90.12;99130.81;1808469;79;21442;-56
2021/01/20 03:28:44;;;;;;;41.08;23.05;;;;;;;-4.07;90.21;99132.08;1808508;79;21132;-55
2021/01/20 03:31:12;;;;;;;44.58;24.65;;;;;;;-4.08;90.23;99123.14;1808544;79;21041;-55
2021/01/20 03:33:39;;;;;;;39.35;22.65;;;;;;;-4.08;90.30;99120.60;1808575;79;21140;-55
2021/01/20 03:36:08;;;;;;;41.15;23.80;;;;;;;-4.10;90.24;99117.19;1808511;79;21116;-56
2021/01/20 03:38:35;;;;;;;37.65;21.87;;;;;;;-4.11;90.18;99115.47;1808690;79;21132;-55
2021/01/20 03:41:03;;;;;;;42.05;24.10;;;;;;;-4.13;90.27;99108.25;1808592;79;21061;-55
2021/01/20 03:43:31;;;;;;;41.98;22.32;;;;;;;-4.14;90.25;99110.34;1808487;79;21037;-56
2021/01/20 03:45:59;;;;;;;41.48;23.10;;;;;;;-4.13;90.38;99112.05;1808489;79;21116;-58
2021/01/20 03:48:27;;;;;;;48.25;24.20;;;;;;;-4.12;90.39;99112.08;1808672;79;21148;-56
2021/01/20 03:50:55;;;;;;;43.42;22.42;;;;;;;-4.11;90.51;99109.98;1808819;79;21354;-56
2021/01/20 03:53:22;;;;;;;41.77;22.35;;;;;;;-4.12;90.49;99110.81;1808640;79;21105;-55
2021/01/20 03:55:50;;;;;;;47.65;24.25;;;;;;;-4.11;90.51;99109.13;1808801;79;21097;-56
2021/01/20 03:58:22;;;;;;;50.15;26.52;;;;;;;-4.12;90.52;99113.77;1808656;79;21041;-57
2021/01/20 04:00:50;;;;;;;50.92;27.10;;;;;;;-4.11;90.60;99105.32;1808682;79;21121;-57
2021/01/20 04:03:18;;;;;;;45.70;24.80;;;;;;;-4.09;90.55;99108.73;1808705;79;21435;-57
2021/01/20 04:06:05;;;;;;;51.68;25.27;;;;;;;-4.08;90.58;99108.80;1808749;79;21073;-56
2021/01/20 04:08:33;;;;;;;50.70;25.68;;;;;;;-4.07;90.64;99116.00;1797032;79;21075;-55
2021/01/20 04:11:01;;;;;;;60.75;29.57;;;;;;;-4.04;90.70;99113.51;1794195;80;21058;-56
2021/01/20 04:13:30;;;;;;;57.00;29.50;;;;;;;-4.01;90.62;99111.88;1793920;80;21149;-56
2021/01/20 04:15:57;;;;;;;54.18;26.90;;;;;;;-4.00;90.61;99111.48;1761069;81;21324;-56
2021/01/20 04:18:25;;;;;;;49.40;26.05;;;;;;;-3.96;90.63;99114.52;1766813;81;21144;-56
2021/01/20 04:20:53;;;;;;;46.90;25.82;;;;;;;-3.96;90.63;99107.75;1761062;81;21081;-56
2021/01/20 04:23:21;;;;;;;48.48;25.30;;;;;;;-3.95;90.64;99107.34;1766696;81;21061;-56
2021/01/20 04:25:49;;;;;;;45.00;23.85;;;;;;;-3.93;90.64;99106.95;1761134;81;21569;-58
2021/01/20 04:28:16;;;;;;;42.62;23.52;;;;;;;-3.91;90.61;99101.09;1766921;81;21253;-56
2021/01/20 04:30:44;;;;;;;48.48;27.45;;;;;;;-3.91;90.56;99104.05;1761007;81;21081;-56
2021/01/20 04:33:12;;;;;;;43.68;24.12;;;;;;;-3.87;90.66;99105.80;1766905;81;21079;-56
2021/01/20 04:35:40;;;;;;;47.55;24.60;;;;;;;-3.86;90.54;99111.73;1761005;81;21129;-56
2021/01/20 04:38:08;;;;;;;46.58;26.25;;;;;;;-3.88;90.43;99101.55;1766995;81;21122;-61
2021/01/20 04:40:36;;;;;;;41.28;23.90;;;;;;;-3.88;90.47;99100.70;1760765;81;21698;-56
2021/01/20 04:43:03;;;;;;;44.90;25.08;;;;;;;-3.87;90.60;99103.27;1766967;81;21184;-56
2021/01/20 04:45:31;;;;;;;45.73;24.87;;;;;;;-3.85;90.59;99106.72;1760979;81;21566;-56
2021/01/20 04:48:00;;;;;;;40.43;22.52;;;;;;;-3.82;90.58;99112.26;1767050;81;21138;-56
2021/01/20 04:50:30;;;;;;;57.48;29.50;;;;;;;-3.79;90.65;99107.23;1760843;81;21165;-56
2021/01/20 04:53:05;;;;;;;51.98;25.90;;;;;;;-3.75;90.67;99112.41;1767069;81;21354;-55
2021/01/20 04:55:33;;;;;;;61.55;31.90;;;;;;;-3.72;90.66;99104.83;1760923;81;21888;-57
2021/01/20 04:58:02;;;;;;;70.00;31.90;;;;;;;-3.69;90.67;99104.05;1766950;81;21149;-56
2021/01/20 05:00:29;;;;;;;45.08;26.68;;;;;;;-3.68;90.67;99099.00;1762551;81;21607;-57
2021/01/20 05:02:58;;;;;;;45.60;23.67;;;;;;;-3.62;90.66;99107.16;1766885;81;21593;-57
2021/01/20 05:05:27;;;;;;;42.78;25.02;;;;;;;-3.58;90.70;99103.83;1761028;81;21353;-57
2021/01/20 05:07:55;;;;;;;39.78;23.22;;;;;;;-3.54;90.61;99100.53;1766773;80;21061;-57
2021/01/20 05:10:22;;;;;;;43.63;23.42;;;;;;;-3.51;90.51;99102.26;1760850;81;21094;-57
2021/01/20 05:12:51;;;;;;;40.45;22.73;;;;;;;-3.51;90.42;99100.98;1766947;81;21146;-57
2021/01/20 05:15:20;;;;;;;42.73;22.45;;;;;;;-3.49;90.52;99098.05;1760738;81;21102;-57
2021/01/20 05:18:01;;;;;;;40.38;23.18;;;;;;;-3.47;90.39;99098.95;1743687;81;21471;-55
2021/01/20 05:20:34;;;;;;;37.95;21.62;;;;;;;-3.48;90.42;99098.48;1759844;81;21176;-56
2021/01/20 05:23:07;;;;;;;38.15;22.15;;;;;;;-3.48;90.48;99095.53;1767102;81;21050;-57
2021/01/20 05:25:42;;;;;;;53.02;26.40;;;;;;;-3.47;90.52;99097.69;1760812;81;21161;-57
2021/01/20 05:28:17;;;;;;;45.20;25.40;;;;;;;-3.48;90.51;99102.30;1767345;81;21114;-57
2021/01/20 05:30:58;;;;;;;44.63;24.90;;;;;;;-3.46;90.63;99105.33;1761187;81;21205;-57
2021/01/20 05:33:38;;;;;;;48.58;25.57;;;;;;;-3.40;90.65;99112.19;1766864;81;21077;-56
2021/01/20 05:36:11;;;;;;;52.38;27.02;;;;;;;-3.40;90.64;99097.83;1760166;81;21169;-57
2021/01/20 05:38:48;;;;;;;48.70;25.95;;;;;;;-3.36;90.71;99097.45;1766763;81;21173;-57
2021/01/20 05:41:22;;;;;;;65.05;32.42;;;;;;;-3.35;90.62;99096.20;1761006;81;21070;-55
2021/01/20 05:43:56;;;;;;;53.28;26.55;;;;;;;-3.36;90.65;99091.95;1766981;81;21257;-57
2021/01/20 05:46:36;;;;;;;69.70;33.90;;;;;;;-3.33;90.70;99093.67;1756171;81;21109;-55
2021/01/20 05:49:05;;;;;;;70.20;35.10;;;;;;;-3.33;90.73;99096.63;1766904;81;21087;-56
2021/01/20 05:51:39;;;;;;;53.90;29.52;;;;;;;-3.32;90.79;99105.58;1760868;81;21737;-56
2021/01/20 05:54:08;;;;;;;57.62;30.70;;;;;;;-3.29;90.90;99111.98;1766693;80;21132;-56
2021/01/20 05:56:36;;;;;;;52.10;27.37;;;;;;;-3.25;90.95;99111.59;1760986;81;21411;-56
2021/01/20 05:59:10;;;;;;;46.68;25.55;;;;;;;-3.23;90.94;99114.63;1767073;81;21499;-56
2021/01/20 06:01:38;;;;;;;44.93;25.23;;;;;;;-3.20;90.98;99116.36;1757050;80;21168;-57
2021/01/20 06:04:07;;;;;;;39.23;23.80;;;;;;;-3.14;91.07;99121.56;1734915;81;21604;-56
2021/01/20 06:06:35;;;;;;;38.88;21.90;;;;;;;-3.07;91.19;99123.38;1754265;80;21482;-56
2021/01/20 06:09:04;;;;;;;39.80;23.65;;;;;;;-3.03;91.08;99116.64;1776296;79;21205;-56
2021/01/20 06:11:31;;;;;;;35.75;21.82;;;;;;;-2.99;90.99;99129.86;1776792;80;21196;-58
2021/01/20 06:14:00;;;;;;;42.10;24.37;;;;;;;-2.96;90.98;99124.39;1777350;80;21352;-56
2021/01/20 06:16:29;;;;;;;38.45;21.30;;;;;;;-2.90;90.98;99132.55;1777541;80;21185;-56
2021/01/20 06:19:09;;;;;;;40.63;24.00;;;;;;;-2.85;90.99;99127.13;1776778;80;21179;-56
2021/01/20 06:21:37;;;;;;;39.75;22.87;;;;;;;-2.83;90.96;99127.58;1776177;79;21364;-57
2021/01/20 06:24:34;;;;;;;35.43;21.42;;;;;;;-2.79;90.76;99127.23;1753941;80;21096;-56
2021/01/20 06:27:13;;;;;;;30.88;18.50;;;;;;;-2.78;90.69;99126.39;1723904;82;21152;-56
2021/01/20 06:29:48;;;;;;;41.53;23.52;;;;;;;-2.75;90.79;99122.61;1705119;82;21223;-59
2021/01/20 06:32:21;;;;;;;40.67;23.62;;;;;;;-2.74;90.73;99129.83;1730857;81;21216;-59
2021/01/20 06:34:53;;;;;;;37.48;20.90;;;;;;;-2.70;90.72;99135.42;1723239;82;21438;-59
2021/01/20 06:37:39;;;;;;;35.13;20.43;;;;;;;-2.67;90.74;99134.18;1687115;85;21647;-58
2021/01/20 06:40:26;;;;;;;37.45;23.40;;;;;;;-2.64;90.73;99133.83;1734532;81;21183;-58
2021/01/20 06:42:55;;;;;;;30.72;19.65;;;;;;;-2.61;90.69;99135.14;1736133;82;21128;-56
2021/01/20 06:45:32;;;;;;;33.38;20.95;;;;;;;-2.56;90.63;99132.67;1717279;82;21203;-58
2021/01/20 06:48:04;;;;;;;35.00;19.90;;;;;;;-2.52;90.67;99142.05;1752515;81;21208;-58
2021/01/20 06:51:17;;;;;;;33.67;20.65;;;;;;;-2.48;90.62;99137.88;1746299;81;21202;-58
2021/01/20 06:54:26;;;;;;;32.25;19.60;;;;;;;-2.42;90.63;99148.13;1711471;81;21205;-57
2021/01/20 06:57:43;;;;;;;30.45;18.95;;;;;;;-2.36;90.60;99138.03;1761885;81;21228;-56
2021/01/20 07:00:39;;;;;;;33.92;20.97;;;;;;;-2.34;90.54;99142.34;1746716;81;21125;-57
2021/01/20 07:04:04;;;;;;;30.72;17.87;;;;;;;-2.31;90.46;99135.15;1704470;81;21160;-58
2021/01/20 07:07:54;;;;;;;38.02;21.75;;;;;;;-2.26;90.50;99134.39;1690210;82;21106;-56
2021/01/20 07:11:25;;;;;;;36.10;21.27;;;;;;;-2.22;90.37;99140.78;1709086;84;21115;-58
2021/01/20 07:19:02;;;;;;;31.33;19.35;;;;;;;-2.10;90.35;99144.36;1717020;81;21171;-59
2021/01/20 07:25:15;;;;;;;33.85;20.48;;;;;;;-1.92;90.03;99132.69;1684960;82;21272;-56
2021/01/20 07:27:49;;;;;;;33.13;19.55;;;;;;;-1.91;89.97;99122.93;1705525;83;21198;-56
2021/01/20 07:30:21;;;;;;;30.40;19.35;;;;;;;-1.87;89.95;99128.09;1699834;83;21123;-57
2021/01/20 07:32:49;;;;;;;30.45;19.12;;;;;;;-1.84;89.81;99132.36;1686409;83;21188;-58
2021/01/20 07:35:25;;;;;;;34.50;21.27;;;;;;;-1.81;89.74;99137.09;1664744;84;21234;-58
2021/01/20 07:38:03;;;;;;;30.27;18.25;;;;;;;-1.76;89.77;99143.50;1666392;83;21204;-58
2021/01/20 07:40:36;;;;;;;29.75;19.23;;;;;;;-1.66;89.81;99146.61;1686490;83;21566;-57
2021/01/20 07:43:23;;;;;;;35.52;21.55;;;;;;;-1.54;89.65;99151.83;1844981;76;27573;-59
2021/01/20 07:45:54;;;;;;;34.67;20.92;;;;;;;-1.48;89.62;99156.16;1769750;80;21223;-58
2021/01/20 07:48:50;;;;;;;31.80;19.42;;;;;;;-1.38;89.36;99150.30;1800350;78;22245;-58
2021/01/20 07:51:37;;;;;;;26.87;19.00;;;;;;;-1.30;89.19;99148.69;1795338;79;21212;-56
2021/01/20 07:54:06;;;;;;;29.27;19.07;;;;;;;-1.16;88.96;99146.28;1793652;77;21112;-58
2021/01/20 07:56:36;;;;;;;25.45;17.05;;;;;;;-1.06;88.81;99150.62;1785694;80;21104;-58
2021/01/20 07:59:18;;;;;;;29.12;20.12;;;;;;;-0.99;88.43;99143.88;1793125;79;21101;-58
2021/01/20 08:01:52;;;;;;;28.92;18.42;;;;;;;-0.97;88.11;99144.34;1797707;78;21811;-57
2021/01/20 08:04:26;;;;;;;25.50;17.25;;;;;;;-0.94;87.80;99145.64;1796444;77;21053;-56
2021/01/20 08:07:00;;;;;;;31.10;19.40;;;;;;;-0.94;87.70;99152.02;1799285;78;21176;-56
2021/01/20 08:09:48;;;;;;;31.33;19.80;;;;;;;-0.91;87.56;99152.45;1798663;77;21172;-57
2021/01/20 08:12:18;;;;;;;30.45;20.75;;;;;;;-0.82;87.77;99156.39;1794268;79;27628;-57
2021/01/20 08:14:46;;;;;;;31.37;20.95;;;;;;;-0.67;87.56;99153.11;1800639;77;21377;-57
2021/01/20 08:17:21;;;;;;;30.55;20.43;;;;;;;-0.56;87.40;99147.65;1801353;79;21155;-56
2021/01/20 08:20:12;;;;;;;30.95;20.62;;;;;;;-0.43;87.04;99154.56;1781825;79;21171;-56
2021/01/20 08:23:00;;;;;;;28.50;18.48;;;;;;;-0.38;86.65;99152.91;1806115;77;21159;-57
2021/01/20 08:25:37;;;;;;;29.77;19.65;;;;;;;-0.32;86.36;99154.20;1802208;79;21180;-57
2021/01/20 08:28:14;;;;;;;26.77;18.12;;;;;;;-0.30;86.22;99151.67;1797996;77;21434;-56
2021/01/20 08:30:47;;;;;;;27.52;19.70;;;;;;;-0.21;86.08;99157.27;1794236;79;21203;-57
2021/01/20 08:33:20;;;;;;;26.07;18.52;;;;;;;-0.14;85.72;99151.34;1799602;79;21152;-57
2021/01/20 08:35:57;;;;;;;29.77;19.40;;;;;;;-0.13;85.46;99146.23;1799762;79;21120;-57
2021/01/20 08:38:27;;;;;;;26.50;19.80;;;;;;;-0.04;85.33;99145.43;1727261;82;21112;-57
2021/01/20 08:41:12;;;;;;;28.27;19.70;;;;;;;0.04;84.85;99159.52;1736149;82;21397;-58
2021/01/20 08:43:41;;;;;;;26.57;18.07;;;;;;;0.08;84.69;99155.73;1719606;82;21638;-57
2021/01/20 08:46:28;;;;;;;29.72;19.25;;;;;;;0.15;84.37;99157.47;1718269;81;21118;-59
2021/01/20 08:49:01;;;;;;;52.27;31.05;;;;;;;0.16;83.97;99159.17;1723337;82;21056;-56
2021/01/20 08:51:36;;;;;;;31.97;20.82;;;;;;;0.11;83.64;99158.28;1729225;83;21179;-56
2021/01/20 08:54:13;;;;;;;27.73;19.37;;;;;;;0.06;83.79;99154.84;1811708;79;21379;-58
2021/01/20 08:56:43;;;;;;;34.18;22.50;;;;;;;0.13;83.86;99151.47;1814224;79;21116;-58
2021/01/20 08:59:15;;;;;;;66.92;40.80;;;;;;;0.18;83.67;99156.62;1790868;79;21184;-58
2021/01/20 09:01:48;;;;;;;46.88;29.18;;;;;;;0.20;83.55;99163.44;1792884;79;21168;-58
2021/01/20 09:04:20;;;;;;;136.80;65.60;;;;;;;0.26;83.64;99158.78;1788607;79;21180;-58
2021/01/20 09:06:59;;;;;;;88.00;47.48;;;;;;;0.33;83.19;99154.13;1806820;79;21360;-58
2021/01/20 09:09:54;;;;;;;34.03;22.50;;;;;;;0.30;83.14;99150.26;1812946;78;21163;-57
2021/01/20 09:12:41;;;;;;;34.70;22.58;;;;;;;0.33;83.16;99157.11;1793264;78;21158;-58
2021/01/20 09:15:31;;;;;;;31.35;21.33;;;;;;;0.35;83.14;99156.26;1787884;77;21112;-57
2021/01/20 09:18:45;;;;;;;28.67;19.73;;;;;;;0.45;83.15;99159.27;1796156;79;21164;-58
2021/01/20 09:25:51;;;;;;;;;;;;;;;0.54;82.96;99156.77;1870215;75;21978;-85
2021/01/20 09:28:22;;;;;;;27.50;18.77;;;;;;;0.57;82.91;99158.47;1842643;76;20567;-87
2021/01/20 09:30:52;;;;;;;24.18;17.67;;;;;;;0.60;82.87;99156.33;1828963;77;22207;-87
2021/01/20 09:33:24;;;;;;;23.55;18.00;;;;;;;0.63;83.03;99160.20;1825609;78;21164;-83
2021/01/20 09:35:54;;;;;;;43.17;25.70;;;;;;;0.74;83.03;99159.36;1857156;77;21176;-87
2021/01/20 09:38:37;;;;;;;26.70;18.60;;;;;;;0.80;82.65;99148.30;1856121;77;21148;-89
2021/01/20 09:41:08;;;;;;;25.85;18.35;;;;;;;0.82;82.63;99144.88;1834943;77;21705;-87
2021/01/20 09:43:39;;;;;;;22.50;17.02;;;;;;;0.85;82.54;99147.89;1802915;77;21253;-87
2021/01/20 09:46:11;;;;;;;27.02;19.40;;;;;;;0.89;82.73;99152.57;1771939;80;21477;-89
2021/01/20 09:48:44;;;;;;;41.37;23.95;;;;;;;0.99;82.54;99153.03;1781721;80;21187;-87
2021/01/20 09:51:13;;;;;;;36.20;24.35;;;;;;;0.99;82.50;99146.21;1768621;80;21203;-86
2021/01/20 09:53:54;;;;;;;24.95;19.62;;;;;;;0.98;82.59;99148.34;1782896;80;21159;-86
2021/01/20 09:56:29;;;;;;;27.98;19.65;;;;;;;1.05;82.52;99149.17;1762584;78;21376;-88
2021/01/20 09:59:01;;;;;;;29.50;19.77;;;;;;;1.09;82.49;99145.36;1795889;79;21666;-87
2021/01/20 10:01:32;;;;;;;32.40;21.25;;;;;;;1.12;82.44;99132.97;1821029;77;21144;-87
2021/01/20 10:04:06;;;;;;;32.23;21.30;;;;;;;1.14;82.36;99133.84;1797608;76;21068;-87
2021/01/20 10:06:37;;;;;;;28.57;21.07;;;;;;;1.12;82.35;99132.97;1794411;75;21166;-84
2021/01/20 10:09:16;;;;;;;26.05;19.92;;;;;;;1.11;82.49;99126.15;1781203;76;21412;-85
2021/01/20 10:11:49;;;;;;;26.57;17.90;;;;;;;1.10;82.55;99127.01;1791404;79;21132;-88
2021/01/20 10:14:21;;;;;;;24.95;19.02;;;;;;;1.11;82.81;99121.03;1792749;79;21029;-89
2021/01/20 10:16:53;;;;;;;24.27;17.30;;;;;;;1.13;82.73;99118.03;1782402;79;21939;-89
2021/01/20 10:19:27;;;;;;;26.60;19.93;;;;;;;1.11;82.60;99116.76;1803569;79;21128;-88
2021/01/20 10:22:06;;;;;;;23.18;18.20;;;;;;;1.10;82.86;99110.37;1776476;79;22250;-89
2021/01/20 10:24:38;;;;;;;;;;;;;;;1.16;82.93;99118.05;1789332;79;21168;-85
2021/01/20 10:27:08;;;;;;;24.25;18.27;;;;;;;1.24;82.80;99112.50;1768147;80;20242;-85
2021/01/20 10:29:42;;;;;;;21.05;15.88;;;;;;;1.29;82.85;99115.08;1751635;82;21176;-85
2021/01/20 10:32:14;;;;;;;23.25;17.23;;;;;;;1.41;82.86;99107.37;1751375;81;21133;-88
2021/01/20 10:35:08;;;;;;;23.47;18.12;;;;;;;1.49;82.60;99106.08;1758528;80;21421;-88
2021/01/20 10:37:37;;;;;;;24.82;18.45;;;;;;;1.53;82.40;99109.07;1766610;81;21108;-58
2021/01/20 10:40:10;;;;;;;25.32;18.77;;;;;;;1.57;82.46;99103.07;1763610;81;21144;-57
2021/01/20 10:42:39;;;;;;;21.45;17.25;;;;;;;1.68;82.14;99104.35;1762277;81;21185;-57
2021/01/20 10:45:09;;;;;;;24.05;18.23;;;;;;;1.80;81.92;99104.30;1764133;81;21185;-58
2021/01/20 10:47:36;;;;;;;22.20;16.95;;;;;;;1.85;81.70;99102.16;1714812;82;21371;-57
2021/01/20 10:50:07;;;;;;;21.00;16.62;;;;;;;1.85;81.34;99097.03;1766857;81;21195;-58
2021/01/20 10:52:38;;;;;;;22.60;17.10;;;;;;;1.83;81.35;99097.91;1766265;81;21522;-56
2021/01/20 10:55:11;;;;;;;24.80;18.77;;;;;;;1.81;81.37;99099.59;1769099;81;21204;-56
2021/01/20 10:57:41;;;;;;;24.40;18.52;;;;;;;1.79;81.28;99094.48;1769892;81;21579;-58
2021/01/20 11:00:14;;;;;;;23.22;18.10;;;;;;;1.78;81.49;99098.34;1763823;81;21423;-57
2021/01/20 11:02:43;;;;;;;22.95;18.23;;;;;;;1.81;81.46;99103.02;1755252;81;21176;-57
2021/01/20 11:05:16;;;;;;;24.45;18.32;;;;;;;1.81;81.44;99097.03;1754005;81;21180;-57
2021/01/20 11:07:48;;;;;;;23.92;18.12;;;;;;;1.82;81.42;99098.34;1757249;80;21672;-57
2021/01/20 11:10:16;;;;;;;26.57;19.20;;;;;;;1.80;81.46;99092.34;1753732;81;21192;-55
2021/01/20 11:12:46;;;;;;;23.25;18.17;;;;;;;1.75;81.50;99090.23;1758157;81;21257;-55
2021/01/20 11:15:18;;;;;;;22.82;18.57;;;;;;;1.67;81.72;99077.88;1754290;81;22032;-55
2021/01/20 11:17:49;;;;;;;21.37;16.50;;;;;;;1.65;82.06;99084.27;1745664;81;21110;-54
2021/01/20 11:20:19;;;;;;;24.63;18.15;;;;;;;1.69;82.35;99081.70;1729395;83;21133;-55
2021/01/20 11:22:51;;;;;;;23.38;18.30;;;;;;;1.74;82.39;99083.41;1729003;83;21185;-56
2021/01/20 11:25:24;;;;;;;21.20;17.15;;;;;;;1.79;82.47;99068.00;1739915;81;22338;-57
2021/01/20 11:27:54;;;;;;;22.15;17.35;;;;;;;1.83;82.24;99069.28;1759260;81;21192;-56
2021/01/20 11:30:25;;;;;;;23.12;17.25;;;;;;;1.81;82.28;99073.97;1758619;81;21675;-56
2021/01/20 11:32:55;;;;;;;25.48;19.77;;;;;;;1.75;82.32;99077.42;1759380;81;21147;-56
2021/01/20 11:38:11;;;;;;;23.22;17.25;;;;;;;1.53;82.96;99070.22;1752782;80;21368;-56
2021/01/20 11:40:43;;;;;;;26.15;20.15;;;;;;;1.49;83.28;99071.49;1750124;82;21182;-56
2021/01/20 11:43:15;;;;;;;22.35;18.27;;;;;;;1.46;83.51;99070.23;1761377;80;21163;-56
2021/01/20 11:45:47;;;;;;;25.52;19.98;;;;;;;1.45;83.66;99067.25;1761694;80;21580;-55
2021/01/20 11:48:19;;;;;;;23.12;17.65;;;;;;;1.43;83.92;99071.50;1779339;80;21166;-55
2021/01/20 11:50:53;;;;;;;24.60;18.20;;;;;;;1.43;84.00;99068.94;1775268;80;21414;-55
2021/01/20 11:53:30;;;;;;;23.20;17.73;;;;;;;1.48;84.16;99068.08;1744926;81;21120;-56
2021/01/20 11:56:03;;;;;;;22.82;18.75;;;;;;;1.53;84.17;99061.25;1721530;82;21132;-56
2021/01/20 11:58:35;;;;;;;24.32;18.85;;;;;;;1.55;84.19;99058.25;1739030;80;22266;-56
2021/01/20 12:01:07;;;;;;;23.80;19.57;;;;;;;1.58;84.10;99056.09;1753360;80;21155;-56
2021/01/20 12:03:39;;;;;;;30.65;23.22;;;;;;;1.55;84.15;99060.81;1761225;80;21225;-55
2021/01/20 12:06:13;;;;;;;27.75;20.80;;;;;;;1.57;84.33;99059.52;1783651;79;21173;-55